Time;durP1;ratioP1;P1;durP2;ratioP2;P2;SDS_P1;SDS_P2;PMS_P1;PMS_P2;Temp;Humidity;BMP_temperature;BMP_pressure;BME280_temperature;BME280_humidity;BME280_pressure;Samples;Min_cycle;Max_cycle;Signal;HPM_P1;HPM_P2
2023/05/27 00:01:52;;;;;;;19.10;6.03;;;;;;;;;;5059450;28;20041;-82
2023/05/27 00:04:18;;;;;;;16.75;5.35;;;;;;;;;;5050754;28;20103;-79
2023/05/27 00:06:44;;;;;;;16.98;5.47;;;;;;;;;;5073903;28;20142;-79
2023/05/27 00:09:10;;;;;;;16.90;6.22;;;;;;;;;;5067171;28;20036;-77
2023/05/27 00:11:36;;;;;;;17.63;6.60;;;;;;;;;;5050942;28;20163;-80
2023/05/27 00:14:02;;;;;;;18.35;5.88;;;;;;;;;;5064255;28;20040;-77
2023/05/27 00:16:28;;;;;;;21.05;6.53;;;;;;;;;;5068874;28;20040;-76
2023/05/27 00:18:55;;;;;;;20.60;6.20;;;;;;;;;;5065420;28;20540;-81
2023/05/27 00:21:21;;;;;;;18.90;5.38;;;;;;;;;;5060304;28;20037;-77
2023/05/27 00:23:47;;;;;;;14.95;5.72;;;;;;;;;;5061805;28;20044;-75
2023/05/27 00:26:13;;;;;;;22.23;5.80;;;;;;;;;;5060126;28;20036;-81
2023/05/27 00:28:40;;;;;;;15.20;5.95;;;;;;;;;;5068569;28;20044;-77
2023/05/27 00:31:06;;;;;;;20.98;6.30;;;;;;;;;;5041830;28;20036;-80
2023/05/27 00:33:32;;;;;;;13.52;5.45;;;;;;;;;;5068073;28;20101;-80
2023/05/27 00:35:58;;;;;;;16.65;5.82;;;;;;;;;;5073164;28;20036;-78
2023/05/27 00:38:24;;;;;;;18.80;5.97;;;;;;;;;;5068693;28;20540;-81
2023/05/27 00:40:50;;;;;;;16.73;5.45;;;;;;;;;;5078309;28;20048;-80
2023/05/27 00:43:16;;;;;;;18.35;6.28;;;;;;;;;;5059039;28;20036;-81
2023/05/27 00:45:42;;;;;;;19.23;6.20;;;;;;;;;;5053331;28;20411;-79
2023/05/27 00:48:08;;;;;;;18.05;5.80;;;;;;;;;;5069103;28;20045;-81
2023/05/27 00:50:35;;;;;;;19.17;5.85;;;;;;;;;;5063292;28;20040;-82
2023/05/27 00:53:01;;;;;;;16.95;6.03;;;;;;;;;;5071211;28;20543;-80
2023/05/27 00:55:27;;;;;;;14.55;5.63;;;;;;;;;;5066772;28;20435;-76
2023/05/27 00:57:56;;;;;;;14.25;6.20;;;;;;;;;;5059904;28;20468;-77
2023/05/27 01:00:22;;;;;;;21.00;6.72;;;;;;;;;;5059992;28;20480;-79
2023/05/27 01:02:49;;;;;;;22.73;6.63;;;;;;;;;;5051843;28;20766;-79
2023/05/27 01:05:16;;;;;;;17.95;6.28;;;;;;;;;;5075042;28;20625;-81
2023/05/27 01:08:00;;;;;;;19.35;6.40;;;;;;;;;;5045732;28;20819;-78
2023/05/27 01:10:32;;;;;;;17.63;6.68;;;;;;;;;;5070208;28;20087;-81
2023/05/27 01:13:08;;;;;;;18.85;6.68;;;;;;;;;;5077966;28;20055;-77
2023/05/27 01:15:34;;;;;;;17.48;6.57;;;;;;;;;;5054106;28;20047;-77
2023/05/27 01:18:01;;;;;;;23.35;6.85;;;;;;;;;;5070539;28;20159;-77
2023/05/27 01:20:29;;;;;;;23.65;7.05;;;;;;;;;;5071532;28;20036;-81
2023/05/27 01:22:57;;;;;;;19.95;6.43;;;;;;;;;;5063841;28;20508;-77
2023/05/27 01:25:23;;;;;;;23.58;4.38;;;;;;;;;;5052458;28;20053;-80
2023/05/27 01:27:51;;;;;;;23.30;7.07;;;;;;;;;;5049506;28;20037;-77
2023/05/27 01:30:17;;;;;;;21.33;7.38;;;;;;;;;;5043884;28;20028;-78
2023/05/27 01:32:46;;;;;;;25.90;8.43;;;;;;;;;;5041251;28;20550;-81
2023/05/27 01:35:31;;;;;;;18.38;6.70;;;;;;;;;;5065322;28;20043;-79
2023/05/27 01:38:00;;;;;;;23.52;7.70;;;;;;;;;;5044660;28;20053;-76
2023/05/27 01:40:25;;;;;;;;;;;;;;;;;;5065176;28;20032;-80
2023/05/27 01:42:52;;;;;;;19.85;7.55;;;;;;;;;;5045604;28;19931;-78
2023/05/27 01:45:18;;;;;;;21.98;7.22;;;;;;;;;;5067062;28;20044;-80
2023/05/27 01:47:45;;;;;;;20.20;7.15;;;;;;;;;;5047932;28;20037;-76
2023/05/27 01:50:11;;;;;;;19.13;6.72;;;;;;;;;;5059424;28;20097;-81
2023/05/27 01:52:37;;;;;;;21.65;7.60;;;;;;;;;;5067513;28;20134;-80
2023/05/27 01:55:05;;;;;;;25.50;7.07;;;;;;;;;;5063650;28;20048;-81
2023/05/27 01:57:31;;;;;;;20.77;5.00;;;;;;;;;;5060196;28;20037;-82
2023/05/27 01:59:57;;;;;;;24.70;7.53;;;;;;;;;;5054249;28;20504;-77
2023/05/27 02:02:23;;;;;;;18.08;6.75;;;;;;;;;;5044858;28;20072;-80
2023/05/27 02:04:49;;;;;;;20.98;7.25;;;;;;;;;;5067992;28;20464;-81
2023/05/27 02:07:16;;;;;;;22.25;7.50;;;;;;;;;;5042184;28;20052;-77
2023/05/27 02:09:43;;;;;;;20.98;7.50;;;;;;;;;;5065034;28;20503;-81
2023/05/27 02:12:09;;;;;;;27.60;7.72;;;;;;;;;;5048790;28;20488;-82
2023/05/27 02:14:38;;;;;;;21.55;7.53;;;;;;;;;;5061721;28;20037;-78
2023/05/27 02:17:05;;;;;;;25.45;7.82;;;;;;;;;;5076352;28;20041;-80
2023/05/27 02:19:31;;;;;;;20.98;7.75;;;;;;;;;;5051427;28;20173;-77
2023/05/27 02:21:57;;;;;;;15.95;6.70;;;;;;;;;;5058955;28;20036;-78
2023/05/27 02:24:23;;;;;;;24.75;8.48;;;;;;;;;;5068134;28;20119;-76
2023/05/27 02:26:49;;;;;;;22.08;9.13;;;;;;;;;;5078969;28;20603;-81
2023/05/27 02:29:15;;;;;;;26.83;9.77;;;;;;;;;;5061213;28;20045;-79
2023/05/27 02:31:41;;;;;;;27.55;8.95;;;;;;;;;;5068621;28;20169;-80
2023/05/27 02:34:07;;;;;;;27.80;8.75;;;;;;;;;;5055194;28;20127;-78
2023/05/27 02:36:33;;;;;;;27.90;8.20;;;;;;;;;;5071847;28;20415;-80
2023/05/27 02:38:59;;;;;;;27.95;10.00;;;;;;;;;;5072600;28;20120;-77
2023/05/27 02:41:26;;;;;;;28.17;9.07;;;;;;;;;;5065488;28;20853;-81
2023/05/27 02:43:52;;;;;;;20.83;7.82;;;;;;;;;;5074509;28;20093;-80
2023/05/27 02:46:18;;;;;;;22.17;7.28;;;;;;;;;;5051861;28;20527;-80
2023/05/27 02:48:44;;;;;;;25.08;7.80;;;;;;;;;;5081541;28;20101;-80
2023/05/27 02:51:10;;;;;;;26.85;8.02;;;;;;;;;;5060760;28;20040;-77
2023/05/27 02:53:36;;;;;;;27.52;7.75;;;;;;;;;;5069733;28;20054;-78
2023/05/27 02:56:02;;;;;;;27.13;8.10;;;;;;;;;;5066407;28;20044;-76
2023/05/27 02:58:28;;;;;;;23.15;7.50;;;;;;;;;;5041924;28;20043;-77
2023/05/27 03:00:54;;;;;;;22.60;7.85;;;;;;;;;;5042456;28;20029;-78
2023/05/27 03:03:21;;;;;;;25.90;7.60;;;;;;;;;;5037699;28;20613;-78
2023/05/27 03:05:47;;;;;;;23.05;7.75;;;;;;;;;;5062957;28;20431;-78
2023/05/27 03:08:13;;;;;;;22.02;7.53;;;;;;;;;;5071643;28;20044;-80
2023/05/27 03:10:39;;;;;;;27.23;8.23;;;;;;;;;;5060997;28;20149;-78
2023/05/27 03:13:05;;;;;;;22.88;7.00;;;;;;;;;;5085230;28;20040;-77
2023/05/27 03:15:31;;;;;;;28.67;8.25;;;;;;;;;;5064630;28;20144;-78
2023/05/27 03:17:58;;;;;;;22.60;7.75;;;;;;;;;;5042157;28;20154;-78
2023/05/27 03:20:24;;;;;;;24.15;7.40;;;;;;;;;;5054996;28;20136;-79
2023/05/27 03:22:50;;;;;;;23.65;7.20;;;;;;;;;;5063904;28;20150;-77
2023/05/27 03:25:16;;;;;;;27.35;8.13;;;;;;;;;;5078352;28;20040;-78
2023/05/27 03:27:42;;;;;;;22.25;8.30;;;;;;;;;;5045892;28;20070;-81
2023/05/27 03:30:08;;;;;;;26.83;8.15;;;;;;;;;;5063257;28;20052;-78
2023/05/27 03:32:35;;;;;;;22.35;7.82;;;;;;;;;;5060598;28;20040;-78
2023/05/27 03:35:01;;;;;;;21.85;7.47;;;;;;;;;;5065596;28;20047;-82
2023/05/27 03:37:27;;;;;;;28.60;8.20;;;;;;;;;;5075702;28;20032;-81
2023/05/27 03:39:53;;;;;;;33.60;8.82;;;;;;;;;;5047129;28;20048;-81
2023/05/27 03:42:19;;;;;;;28.60;8.02;;;;;;;;;;5070664;28;20051;-80
2023/05/27 03:44:45;;;;;;;26.67;7.68;;;;;;;;;;5077792;28;20052;-82
2023/05/27 03:47:11;;;;;;;25.60;7.72;;;;;;;;;;5051306;28;20048;-82
2023/05/27 03:49:37;;;;;;;23.90;7.68;;;;;;;;;;5047481;28;20053;-82
2023/05/27 03:52:03;;;;;;;27.65;8.18;;;;;;;;;;5078942;28;20089;-76
2023/05/27 03:54:29;;;;;;;28.70;8.60;;;;;;;;;;5073662;28;20048;-81
2023/05/27 03:56:55;;;;;;;27.23;7.13;;;;;;;;;;5078032;28;20369;-81
2023/05/27 03:59:21;;;;;;;28.23;7.65;;;;;;;;;;5067891;28;20047;-81
2023/05/27 04:01:48;;;;;;;26.90;7.60;;;;;;;;;;5072820;28;20074;-79
2023/05/27 04:04:14;;;;;;;36.47;8.13;;;;;;;;;;5067418;28;20095;-78
2023/05/27 04:06:41;;;;;;;28.80;8.90;;;;;;;;;;5053821;28;20048;-81
2023/05/27 04:09:07;;;;;;;27.98;7.65;;;;;;;;;;5047277;28;20375;-81
2023/05/27 04:11:33;;;;;;;23.00;7.78;;;;;;;;;;5069955;28;20051;-79
2023/05/27 04:13:59;;;;;;;24.73;7.55;;;;;;;;;;5068648;28;20097;-81
2023/05/27 04:16:25;;;;;;;29.60;7.65;;;;;;;;;;5053371;28;20433;-78
2023/05/27 04:18:51;;;;;;;34.22;8.02;;;;;;;;;;5070239;28;20046;-81
2023/05/27 04:21:21;;;;;;;20.45;7.40;;;;;;;;;;5067249;28;20028;-78
2023/05/27 04:23:47;;;;;;;32.17;8.40;;;;;;;;;;5078766;28;20135;-77
2023/05/27 04:26:14;;;;;;;29.52;7.72;;;;;;;;;;5065481;28;20045;-76
2023/05/27 04:28:40;;;;;;;29.15;7.70;;;;;;;;;;5062588;28;20558;-82
2023/05/27 04:31:12;;;;;;;27.08;7.93;;;;;;;;;;5074301;28;20167;-80
2023/05/27 04:33:39;;;;;;;28.08;8.05;;;;;;;;;;5048690;28;20052;-81
2023/05/27 04:36:05;;;;;;;24.13;7.15;;;;;;;;;;5050949;28;20778;-81
2023/05/27 04:38:31;;;;;;;28.85;7.35;;;;;;;;;;5064401;28;20068;-82
2023/05/27 04:40:58;;;;;;;23.40;7.15;;;;;;;;;;5059440;28;20040;-81
2023/05/27 04:43:26;;;;;;;29.77;7.10;;;;;;;;;;5062475;28;20220;-79
2023/05/27 04:45:52;;;;;;;22.02;6.63;;;;;;;;;;5063916;28;20051;-83
2023/05/27 04:48:19;;;;;;;23.55;7.35;;;;;;;;;;5059870;28;20041;-78
2023/05/27 04:50:45;;;;;;;24.63;6.97;;;;;;;;;;5064360;28;20111;-77
2023/05/27 04:53:12;;;;;;;30.38;7.18;;;;;;;;;;5068645;28;20044;-77
2023/05/27 04:55:38;;;;;;;24.05;6.65;;;;;;;;;;5045106;28;20602;-76
2023/05/27 04:58:05;;;;;;;25.88;7.00;;;;;;;;;;5072068;28;20087;-77
2023/05/27 05:00:49;;;;;;;20.92;6.15;;;;;;;;;;5072928;28;20090;-77
2023/05/27 05:03:20;;;;;;;26.63;6.93;;;;;;;;;;5066802;28;20060;-78
2023/05/27 05:05:53;;;;;;;26.00;7.10;;;;;;;;;;5066136;28;20048;-76
2023/05/27 05:08:20;;;;;;;23.70;6.90;;;;;;;;;;5039947;28;20045;-82
2023/05/27 05:10:48;;;;;;;28.88;7.72;;;;;;;;;;5068012;28;20139;-80
2023/05/27 05:13:15;;;;;;;26.98;6.75;;;;;;;;;;5067269;28;20052;-79
2023/05/27 05:15:43;;;;;;;20.13;6.18;;;;;;;;;;5078330;28;20122;-81
2023/05/27 05:18:10;;;;;;;26.52;6.65;;;;;;;;;;5072233;28;20513;-77
2023/05/27 05:20:36;;;;;;;23.05;6.40;;;;;;;;;;5045360;28;20040;-82
2023/05/27 05:23:02;;;;;;;23.27;6.78;;;;;;;;;;5048878;28;20049;-77
2023/05/27 05:25:30;;;;;;;23.92;6.22;;;;;;;;;;5061042;28;20071;-77
2023/05/27 05:27:56;;;;;;;22.55;6.43;;;;;;;;;;5068863;28;20058;-77
2023/05/27 05:30:22;;;;;;;27.65;6.43;;;;;;;;;;5067080;28;20651;-78
2023/05/27 05:32:49;;;;;;;23.85;6.50;;;;;;;;;;5075366;28;21588;-77
2023/05/27 05:35:15;;;;;;;29.13;6.93;;;;;;;;;;5048407;28;20582;-77
2023/05/27 05:37:41;;;;;;;27.15;6.75;;;;;;;;;;5062613;28;20123;-76
2023/05/27 05:40:07;;;;;;;24.98;6.72;;;;;;;;;;5077977;28;20136;-78
2023/05/27 05:42:33;;;;;;;21.02;6.47;;;;;;;;;;5050231;28;20057;-75
2023/05/27 05:44:59;;;;;;;27.58;6.95;;;;;;;;;;5066602;28;20941;-77
2023/05/27 05:47:25;;;;;;;25.75;6.65;;;;;;;;;;5065021;28;20055;-80
2023/05/27 05:49:51;;;;;;;28.08;7.25;;;;;;;;;;5075840;28;20040;-76
2023/05/27 05:52:17;;;;;;;21.67;6.85;;;;;;;;;;5075073;28;20461;-77
2023/05/27 05:54:43;;;;;;;28.70;7.53;;;;;;;;;;5062137;28;20131;-80
2023/05/27 05:57:09;;;;;;;27.17;7.60;;;;;;;;;;5046372;28;20519;-77
2023/05/27 05:59:35;;;;;;;28.30;7.28;;;;;;;;;;5065800;28;20051;-83
2023/05/27 06:02:01;;;;;;;24.55;6.97;;;;;;;;;;5075833;28;20693;-78
2023/05/27 06:04:27;;;;;;;34.90;7.97;;;;;;;;;;5073318;28;20083;-79
2023/05/27 06:06:53;;;;;;;20.05;7.13;;;;;;;;;;5061192;28;20492;-81
2023/05/27 06:09:19;;;;;;;25.98;7.57;;;;;;;;;;5064514;28;20044;-80
2023/05/27 06:11:45;;;;;;;25.00;7.30;;;;;;;;;;5045224;28;20044;-78
2023/05/27 06:14:11;;;;;;;29.80;7.55;;;;;;;;;;5047392;28;20047;-79
2023/05/27 06:16:39;;;;;;;25.00;7.50;;;;;;;;;;5060877;28;20098;-78
2023/05/27 06:19:05;;;;;;;23.95;7.40;;;;;;;;;;5048914;28;20049;-78
2023/05/27 06:21:32;;;;;;;32.00;7.00;;;;;;;;;;5061876;28;20075;-80
2023/05/27 06:23:59;;;;;;;24.23;7.65;;;;;;;;;;5070286;28;20501;-80
2023/05/27 06:26:25;;;;;;;22.00;7.30;;;;;;;;;;5051277;28;20798;-82
2023/05/27 06:28:51;;;;;;;26.17;6.85;;;;;;;;;;5053337;28;20032;-83
2023/05/27 06:31:17;;;;;;;30.40;7.63;;;;;;;;;;5061255;28;20036;-83
2023/05/27 06:33:43;;;;;;;28.23;7.07;;;;;;;;;;5041335;28;20060;-83
2023/05/27 06:36:09;;;;;;;30.33;7.20;;;;;;;;;;5047775;28;20091;-81
2023/05/27 06:38:35;;;;;;;27.98;7.05;;;;;;;;;;5051864;28;20491;-78
2023/05/27 06:41:01;;;;;;;28.75;7.32;;;;;;;;;;5066277;28;20032;-81
2023/05/27 06:43:27;;;;;;;29.35;6.75;;;;;;;;;;5056935;28;20097;-81
2023/05/27 06:45:53;;;;;;;27.20;7.00;;;;;;;;;;5066370;28;20051;-80
2023/05/27 06:48:19;;;;;;;31.67;7.60;;;;;;;;;;5063357;28;20051;-82
2023/05/27 06:50:45;;;;;;;28.00;7.05;;;;;;;;;;5061395;28;20040;-81
2023/05/27 06:53:13;;;;;;;24.88;7.20;;;;;;;;;;5068881;28;20448;-82
2023/05/27 06:55:39;;;;;;;26.55;7.00;;;;;;;;;;5070946;28;20713;-78
2023/05/27 06:58:06;;;;;;;28.85;7.40;;;;;;;;;;5074262;28;20071;-76
2023/05/27 07:00:32;;;;;;;22.60;5.75;;;;;;;;;;5061925;28;20123;-81
2023/05/27 07:03:00;;;;;;;16.35;5.47;;;;;;;;;;5069804;28;20187;-78
2023/05/27 07:05:26;;;;;;;26.80;5.40;;;;;;;;;;5065721;28;20106;-78
2023/05/27 07:07:52;;;;;;;20.20;5.22;;;;;;;;;;5050564;28;20040;-80
2023/05/27 07:10:18;;;;;;;23.65;5.55;;;;;;;;;;5066167;28;20381;-82
2023/05/27 07:12:44;;;;;;;19.05;5.15;;;;;;;;;;5064179;28;20076;-83
2023/05/27 07:15:10;;;;;;;25.92;5.93;;;;;;;;;;5074860;28;20508;-79
2023/05/27 07:17:36;;;;;;;26.13;5.65;;;;;;;;;;5068320;28;20082;-77
2023/05/27 07:20:02;;;;;;;25.25;5.53;;;;;;;;;;5056038;28;20044;-83
2023/05/27 07:22:29;;;;;;;27.20;5.47;;;;;;;;;;5067739;28;20115;-77
2023/05/27 07:24:55;;;;;;;26.67;5.43;;;;;;;;;;5073876;28;20141;-78
2023/05/27 07:27:21;;;;;;;23.90;5.15;;;;;;;;;;5072648;28;20487;-82
2023/05/27 07:29:47;;;;;;;21.30;5.18;;;;;;;;;;5070254;28;20055;-79
2023/05/27 07:32:13;;;;;;;23.25;5.57;;;;;;;;;;5050441;28;20044;-77
2023/05/27 07:34:39;;;;;;;21.23;6.03;;;;;;;;;;5066045;28;20051;-78
2023/05/27 07:37:05;;;;;;;19.70;4.97;;;;;;;;;;5079526;28;20051;-77
2023/05/27 07:39:31;;;;;;;19.05;5.03;;;;;;;;;;5049006;28;20053;-79
2023/05/27 07:41:57;;;;;;;21.63;4.97;;;;;;;;;;5071826;28;20082;-82
2023/05/27 07:44:23;;;;;;;23.00;5.80;;;;;;;;;;5061251;28;20093;-83
2023/05/27 07:46:49;;;;;;;21.08;5.38;;;;;;;;;;5068624;28;20109;-84
2023/05/27 07:49:15;;;;;;;22.52;5.10;;;;;;;;;;5057696;28;20048;-77
2023/05/27 07:51:41;;;;;;;25.10;6.28;;;;;;;;;;5051909;28;20459;-84
2023/05/27 07:54:07;;;;;;;17.65;4.88;;;;;;;;;;5076753;28;20052;-84
2023/05/27 07:56:34;;;;;;;22.25;5.15;;;;;;;;;;5073789;28;20717;-77
2023/05/27 07:59:00;;;;;;;20.90;5.30;;;;;;;;;;5065375;28;20045;-78
2023/05/27 08:01:30;;;;;;;20.85;5.05;;;;;;;;;;5062036;28;20048;-80
2023/05/27 08:03:56;;;;;;;20.35;5.50;;;;;;;;;;5065841;28;20091;-76
2023/05/27 08:06:22;;;;;;;21.83;5.38;;;;;;;;;;5069971;28;20081;-79
2023/05/27 08:08:48;;;;;;;16.67;4.82;;;;;;;;;;5062344;28;20041;-82
2023/05/27 08:11:14;;;;;;;18.52;4.47;;;;;;;;;;5064257;28;20033;-79
2023/05/27 08:13:41;;;;;;;20.25;4.95;;;;;;;;;;5051371;28;20067;-76
2023/05/27 08:16:07;;;;;;;23.20;4.72;;;;;;;;;;5064750;28;20040;-78
2023/05/27 08:18:33;;;;;;;18.95;5.07;;;;;;;;;;5072322;28;20463;-79
2023/05/27 08:20:59;;;;;;;22.38;5.95;;;;;;;;;;5053063;28;20440;-82
2023/05/27 08:23:26;;;;;;;18.38;4.95;;;;;;;;;;5073297;28;20098;-74
2023/05/27 08:25:52;;;;;;;19.35;4.93;;;;;;;;;;5055687;28;20470;-75
2023/05/27 08:28:18;;;;;;;22.75;4.95;;;;;;;;;;5048883;28;20110;-76
2023/05/27 08:30:44;;;;;;;22.73;5.10;;;;;;;;;;5055877;28;20043;-77
2023/05/27 08:33:10;;;;;;;22.42;5.45;;;;;;;;;;5063165;28;20178;-78
2023/05/27 08:35:36;;;;;;;19.77;5.40;;;;;;;;;;5073559;28;20452;-76
2023/05/27 08:38:02;;;;;;;19.75;5.38;;;;;;;;;;5065367;28;20080;-81
2023/05/27 08:40:28;;;;;;;18.35;5.45;;;;;;;;;;5082176;28;20385;-81
2023/05/27 08:42:54;;;;;;;18.88;5.63;;;;;;;;;;5070814;28;20045;-81
2023/05/27 08:45:22;;;;;;;19.52;5.53;;;;;;;;;;5069533;28;20109;-80
2023/05/27 08:47:49;;;;;;;16.73;5.20;;;;;;;;;;5069595;28;20127;-78
2023/05/27 08:50:15;;;;;;;23.15;5.80;;;;;;;;;;5073253;28;20098;-78
2023/05/27 08:52:47;;;;;;;20.17;4.90;;;;;;;;;;5069539;28;20032;-79
2023/05/27 08:55:16;;;;;;;17.70;5.20;;;;;;;;;;5071343;28;20052;-77
2023/05/27 08:57:44;;;;;;;16.02;4.90;;;;;;;;;;5068685;28;20032;-81
2023/05/27 09:00:13;;;;;;;19.35;5.45;;;;;;;;;;5074543;28;20044;-78
2023/05/27 09:02:39;;;;;;;20.30;5.47;;;;;;;;;;5043221;28;20560;-79
2023/05/27 09:05:06;;;;;;;13.98;4.43;;;;;;;;;;5077563;28;20147;-76
2023/05/27 09:07:32;;;;;;;18.67;5.22;;;;;;;;;;5044193;28;20058;-79
2023/05/27 09:09:59;;;;;;;18.25;5.18;;;;;;;;;;5064741;28;20049;-77
2023/05/27 09:12:25;;;;;;;17.77;4.88;;;;;;;;;;5062067;28;20119;-79
2023/05/27 09:14:52;;;;;;;21.02;5.07;;;;;;;;;;5068827;28;20047;-78
2023/05/27 09:17:18;;;;;;;16.20;4.55;;;;;;;;;;5079732;28;20126;-78
2023/05/27 09:19:47;;;;;;;19.15;5.40;;;;;;;;;;5057927;28;20381;-79
2023/05/27 09:22:24;;;;;;;18.13;4.97;;;;;;;;;;5060922;28;20040;-79
2023/05/27 09:24:50;;;;;;;17.48;4.50;;;;;;;;;;5057136;28;20551;-79
2023/05/27 09:27:16;;;;;;;16.88;4.88;;;;;;;;;;5044060;28;20043;-79
2023/05/27 09:29:42;;;;;;;20.63;5.35;;;;;;;;;;5070554;28;20040;-79
2023/05/27 09:32:08;;;;;;;18.00;4.70;;;;;;;;;;5058684;28;20119;-78
2023/05/27 09:34:41;;;;;;;16.50;4.63;;;;;;;;;;5047926;28;20149;-79
2023/05/27 09:37:17;;;;;;;18.45;5.30;;;;;;;;;;5049634;28;20051;-78
2023/05/27 09:39:43;;;;;;;19.42;5.30;;;;;;;;;;5046506;28;20054;-79
2023/05/27 09:42:09;;;;;;;16.45;4.85;;;;;;;;;;5045001;28;20131;-78
2023/05/27 09:44:38;;;;;;;18.23;5.03;;;;;;;;;;5043657;28;20068;-79
2023/05/27 09:47:08;;;;;;;18.27;5.35;;;;;;;;;;5060245;28;20044;-80
2023/05/27 09:49:35;;;;;;;20.67;5.00;;;;;;;;;;5059621;28;20661;-79
2023/05/27 09:52:02;;;;;;;20.38;4.95;;;;;;;;;;5077445;28;20053;-79
2023/05/27 09:54:28;;;;;;;15.90;4.93;;;;;;;;;;5064097;28;20048;-79
2023/05/27 09:56:55;;;;;;;15.85;4.82;;;;;;;;;;5055280;28;20044;-80
2023/05/27 09:59:21;;;;;;;18.02;4.65;;;;;;;;;;5074486;28;20408;-80
2023/05/27 10:01:47;;;;;;;13.52;4.60;;;;;;;;;;5057182;28;20067;-79
2023/05/27 10:04:15;;;;;;;20.25;5.60;;;;;;;;;;5046422;28;20126;-78
2023/05/27 10:06:42;;;;;;;20.33;5.10;;;;;;;;;;5057532;28;20540;-79
2023/05/27 10:09:08;;;;;;;18.25;5.03;;;;;;;;;;5072253;28;20032;-77
2023/05/27 10:11:36;;;;;;;20.27;5.45;;;;;;;;;;5047996;28;20086;-77
2023/05/27 10:14:03;;;;;;;19.83;5.60;;;;;;;;;;5049149;28;20101;-80
2023/05/27 10:16:32;;;;;;;15.30;4.72;;;;;;;;;;5048093;28;20646;-80
2023/05/27 10:18:59;;;;;;;23.25;5.30;;;;;;;;;;5043633;28;20155;-80
2023/05/27 10:21:29;;;;;;;16.20;4.50;;;;;;;;;;5056771;28;20039;-81
2023/05/27 10:23:58;;;;;;;17.42;4.88;;;;;;;;;;5059197;28;20037;-80
2023/05/27 10:26:35;;;;;;;18.15;5.25;;;;;;;;;;5060221;28;20411;-80
2023/05/27 10:29:10;;;;;;;17.95;4.78;;;;;;;;;;5064574;28;20076;-80
2023/05/27 10:31:39;;;;;;;18.90;5.13;;;;;;;;;;5059443;28;20044;-80
2023/05/27 10:34:06;;;;;;;20.95;4.75;;;;;;;;;;5059898;28;20044;-80
2023/05/27 10:36:32;;;;;;;18.05;4.60;;;;;;;;;;5060796;28;20081;-80
2023/05/27 10:39:00;;;;;;;21.02;5.00;;;;;;;;;;5058706;28;20047;-81
2023/05/27 10:41:27;;;;;;;22.52;5.30;;;;;;;;;;5045276;28;20131;-80
2023/05/27 10:44:02;;;;;;;17.67;4.80;;;;;;;;;;5056897;28;20135;-81
2023/05/27 10:46:38;;;;;;;20.55;4.65;;;;;;;;;;5065621;28;20048;-79
2023/05/27 10:49:37;;;;;;;19.25;5.22;;;;;;;;;;5045326;28;20040;-80
2023/05/27 10:52:13;;;;;;;17.70;4.90;;;;;;;;;;5064699;28;20147;-79
2023/05/27 10:54:40;;;;;;;14.38;4.57;;;;;;;;;;5049217;28;20033;-80
2023/05/27 10:57:07;;;;;;;14.35;4.68;;;;;;;;;;5051348;28;20052;-81
2023/05/27 10:59:52;;;;;;;18.42;5.38;;;;;;;;;;5024715;28;20049;-80
2023/05/27 11:02:22;;;;;;;16.85;4.65;;;;;;;;;;5054776;28;20043;-81
2023/05/27 11:04:52;;;;;;;16.70;4.57;;;;;;;;;;5065694;28;20102;-81
2023/05/27 11:07:18;;;;;;;17.13;4.63;;;;;;;;;;5055481;28;20803;-79
2023/05/27 11:09:55;;;;;;;20.17;5.43;;;;;;;;;;5036522;28;20757;-81
2023/05/27 11:12:22;;;;;;;19.60;5.38;;;;;;;;;;5055189;28;20048;-80
2023/05/27 11:14:52;;;;;;;15.82;5.03;;;;;;;;;;5073790;28;20132;-80
2023/05/27 11:17:18;;;;;;;14.57;4.53;;;;;;;;;;5055742;28;20044;-80
2023/05/27 11:19:45;;;;;;;20.15;5.05;;;;;;;;;;5058745;28;20052;-80
2023/05/27 11:22:13;;;;;;;13.35;4.60;;;;;;;;;;5038073;28;20051;-81
2023/05/27 11:24:42;;;;;;;18.90;4.68;;;;;;;;;;5041067;28;20051;-81
2023/05/27 11:27:10;;;;;;;17.52;5.35;;;;;;;;;;5058879;28;20609;-81
2023/05/27 11:29:36;;;;;;;17.30;5.22;;;;;;;;;;5060471;28;20178;-81
2023/05/27 11:32:03;;;;;;;15.77;5.15;;;;;;;;;;5059216;28;20344;-81
2023/05/27 11:34:29;;;;;;;20.48;5.22;;;;;;;;;;5057630;28;20044;-80
2023/05/27 11:36:56;;;;;;;16.77;4.90;;;;;;;;;;5061731;28;20051;-79
2023/05/27 11:39:22;;;;;;;19.35;4.90;;;;;;;;;;5055318;28;20048;-79
2023/05/27 11:41:49;;;;;;;17.00;4.97;;;;;;;;;;5070657;28;20041;-79
2023/05/27 11:44:18;;;;;;;15.73;4.75;;;;;;;;;;5054891;28;21063;-79
2023/05/27 11:46:44;;;;;;;17.27;4.43;;;;;;;;;;5074633;28;20052;-80
2023/05/27 11:49:11;;;;;;;21.50;5.40;;;;;;;;;;5058642;28;20156;-79
2023/05/27 11:51:38;;;;;;;16.40;4.53;;;;;;;;;;5053349;28;20439;-80
2023/05/27 11:54:04;;;;;;;20.25;5.30;;;;;;;;;;5058344;28;20087;-81
2023/05/27 11:56:30;;;;;;;18.02;5.22;;;;;;;;;;5042177;28;20048;-80
2023/05/27 11:58:57;;;;;;;25.58;5.30;;;;;;;;;;5055349;28;20048;-80
2023/05/27 12:01:23;;;;;;;20.55;5.30;;;;;;;;;;5037886;28;20079;-80
2023/05/27 12:03:49;;;;;;;19.70;5.18;;;;;;;;;;5036596;28;20064;-80
2023/05/27 12:06:15;;;;;;;18.58;5.05;;;;;;;;;;5058924;28;20036;-80
2023/05/27 12:08:42;;;;;;;15.63;5.05;;;;;;;;;;5058680;28;20057;-79
2023/05/27 12:11:08;;;;;;;15.95;4.53;;;;;;;;;;5057670;28;20048;-79
2023/05/27 12:13:34;;;;;;;17.10;4.90;;;;;;;;;;5046402;28;20090;-79
2023/05/27 12:16:02;;;;;;;16.83;4.32;;;;;;;;;;5050714;28;20052;-79
2023/05/27 12:18:45;;;;;;;17.73;5.00;;;;;;;;;;5044777;28;20051;-79
2023/05/27 12:21:11;;;;;;;18.20;5.18;;;;;;;;;;5038137;28;20494;-80
2023/05/27 12:23:37;;;;;;;14.23;4.70;;;;;;;;;;5053197;28;20585;-80
2023/05/27 12:26:03;;;;;;;19.08;4.90;;;;;;;;;;5058221;28;20114;-79
2023/05/27 12:28:29;;;;;;;17.40;4.85;;;;;;;;;;5058138;28;20036;-79
2023/05/27 12:30:55;;;;;;;20.13;5.60;;;;;;;;;;5047097;28;20039;-78
2023/05/27 12:33:22;;;;;;;16.33;5.25;;;;;;;;;;5060718;28;20052;-78
2023/05/27 12:35:48;;;;;;;15.07;5.30;;;;;;;;;;5066293;28;20054;-79
2023/05/27 12:38:14;;;;;;;15.95;5.15;;;;;;;;;;5043291;28;20040;-79
2023/05/27 12:40:40;;;;;;;16.90;5.50;;;;;;;;;;5056804;28;20086;-79
2023/05/27 12:43:06;;;;;;;15.07;4.93;;;;;;;;;;5052481;28;20044;-79
2023/05/27 12:45:32;;;;;;;15.23;5.05;;;;;;;;;;5041945;28;20036;-79
2023/05/27 12:47:59;;;;;;;17.60;5.45;;;;;;;;;;5057390;28;20159;-79
2023/05/27 12:50:25;;;;;;;15.95;5.95;;;;;;;;;;5059985;28;20036;-78
2023/05/27 12:52:52;;;;;;;20.30;5.50;;;;;;;;;;5062059;28;20823;-79
2023/05/27 12:55:19;;;;;;;17.88;5.55;;;;;;;;;;5044771;28;20042;-79
2023/05/27 12:57:49;;;;;;;18.38;5.13;;;;;;;;;;5059335;28;20048;-79
2023/05/27 13:00:16;;;;;;;14.43;4.80;;;;;;;;;;5047199;28;20072;-80
2023/05/27 13:02:46;;;;;;;14.02;5.45;;;;;;;;;;5051134;28;20607;-79
2023/05/27 13:05:13;;;;;;;16.60;5.40;;;;;;;;;;5053639;28;20574;-78
2023/05/27 13:07:39;;;;;;;16.40;4.97;;;;;;;;;;5043373;28;20048;-79
2023/05/27 13:10:06;;;;;;;15.32;4.82;;;;;;;;;;5042904;28;20043;-79
2023/05/27 13:12:33;;;;;;;14.55;4.88;;;;;;;;;;5060252;28;20101;-79
2023/05/27 13:14:59;;;;;;;15.73;5.20;;;;;;;;;;5057449;28;20063;-78
2023/05/27 13:17:25;;;;;;;20.23;5.30;;;;;;;;;;5044917;28;20067;-79
2023/05/27 13:19:51;;;;;;;20.08;6.07;;;;;;;;;;5061187;28;20690;-79
2023/05/27 13:22:17;;;;;;;19.10;5.53;;;;;;;;;;5060357;28;20052;-79
2023/05/27 13:24:43;;;;;;;17.70;5.15;;;;;;;;;;5058707;28;20118;-78
2023/05/27 13:27:09;;;;;;;16.40;5.70;;;;;;;;;;5057695;28;20044;-78
2023/05/27 13:29:36;;;;;;;19.77;5.75;;;;;;;;;;5060707;28;20044;-78
2023/05/27 13:32:02;;;;;;;16.67;4.93;;;;;;;;;;5052515;28;20052;-79
2023/05/27 13:34:29;;;;;;;13.40;4.15;;;;;;;;;;5045173;28;20083;-78
2023/05/27 13:36:56;;;;;;;16.17;5.43;;;;;;;;;;5055617;28;20037;-78
2023/05/27 13:39:22;;;;;;;17.33;5.68;;;;;;;;;;5062092;28;20507;-79
2023/05/27 13:41:48;;;;;;;17.42;5.65;;;;;;;;;;5060778;28;20470;-77
2023/05/27 13:44:14;;;;;;;24.30;5.95;;;;;;;;;;5039351;28;20040;-79
2023/05/27 13:46:40;;;;;;;22.27;6.13;;;;;;;;;;5048821;28;20087;-78
2023/05/27 13:49:06;;;;;;;16.23;5.30;;;;;;;;;;5055308;28;20127;-79
2023/05/27 13:51:32;;;;;;;16.13;4.97;;;;;;;;;;5063119;28;20617;-78
2023/05/27 13:53:58;;;;;;;21.38;5.35;;;;;;;;;;5054853;28;20143;-78
2023/05/27 13:56:25;;;;;;;16.33;5.05;;;;;;;;;;5034770;28;20442;-77
2023/05/27 13:58:54;;;;;;;18.23;5.53;;;;;;;;;;5059957;28;20448;-78
2023/05/27 14:01:20;;;;;;;15.27;5.18;;;;;;;;;;5041181;28;20041;-78
2023/05/27 14:03:47;;;;;;;22.05;5.45;;;;;;;;;;5053150;28;20070;-78
2023/05/27 14:06:13;;;;;;;15.80;5.22;;;;;;;;;;5040312;28;20087;-78
2023/05/27 14:08:39;;;;;;;19.25;5.30;;;;;;;;;;5042931;28;20041;-79
2023/05/27 14:11:06;;;;;;;16.08;5.03;;;;;;;;;;5063886;28;20064;-79
2023/05/27 14:13:32;;;;;;;13.18;4.40;;;;;;;;;;5063751;28;20614;-79
2023/05/27 14:15:58;;;;;;;15.95;5.47;;;;;;;;;;5046571;28;20048;-78
2023/05/27 14:18:24;;;;;;;18.17;5.05;;;;;;;;;;5043961;28;20881;-79
2023/05/27 14:20:50;;;;;;;17.90;5.50;;;;;;;;;;5063979;28;20052;-78
2023/05/27 14:23:16;;;;;;;15.23;4.70;;;;;;;;;;5061924;28;20048;-78
2023/05/27 14:25:42;;;;;;;14.32;4.30;;;;;;;;;;5044295;28;20499;-79
2023/05/27 14:28:09;;;;;;;14.48;4.45;;;;;;;;;;5067934;28;20040;-77
2023/05/27 14:30:38;;;;;;;13.63;4.53;;;;;;;;;;5041008;28;20045;-78